Time;durP1;ratioP1;P1;durP2;ratioP2;P2;SDS_P1;SDS_P2;PMS_P1;PMS_P2;Temp;Humidity;BMP_temperature;BMP_pressure;BME280_temperature;BME280_humidity;BME280_pressure;Samples;Min_cycle;Max_cycle;Signal;HPM_P1;HPM_P2
2023/04/08 00:00:02;;;;;;;7.00;6.40;;;;;;;11.28;49.67;98094.41;8415148;28;20235;-72
2023/04/08 00:04:09;;;;;;;6.73;6.13;;;;;;;11.24;49.69;98081.66;8415088;28;20231;-72
2023/04/08 00:08:13;;;;;;;6.97;6.30;;;;;;;11.23;49.77;98087.72;8415142;28;20266;-71
2023/04/08 00:12:17;;;;;;;6.90;6.23;;;;;;;11.23;49.54;98085.13;8414766;28;20226;-71
2023/04/08 00:16:21;;;;;;;6.53;5.90;;;;;;;11.10;49.98;98085.72;8414830;28;20236;-71
2023/04/08 00:20:25;;;;;;;7.30;6.43;;;;;;;11.19;49.99;98081.84;8414840;28;20306;-71
2023/04/08 00:24:28;;;;;;;7.03;6.43;;;;;;;11.12;49.67;98086.47;8414510;28;20244;-71
2023/04/08 00:28:31;;;;;;;7.30;6.60;;;;;;;11.19;49.54;98084.44;8414412;28;20234;-71
2023/04/08 00:32:33;;;;;;;7.80;6.90;;;;;;;11.08;49.87;98092.72;8414594;28;20241;-71
2023/04/08 00:36:37;;;;;;;7.23;6.63;;;;;;;11.09;49.87;98091.78;8414420;28;20231;-71
2023/04/08 00:40:40;;;;;;;7.00;6.33;;;;;;;10.93;49.84;98090.78;8413977;28;20288;-71
2023/04/08 00:44:43;;;;;;;7.40;6.57;;;;;;;10.91;50.09;98092.63;8413491;28;20239;-70
2023/04/08 00:48:46;;;;;;;8.77;7.93;;;;;;;10.77;49.87;98082.81;8413622;28;20230;-70
2023/04/08 00:52:50;;;;;;;8.00;7.20;;;;;;;10.89;49.82;98104.75;8413573;28;20234;-71
2023/04/08 00:56:53;;;;;;;7.40;6.70;;;;;;;10.83;49.50;98095.50;8413530;28;20529;-71
2023/04/08 01:00:59;;;;;;;7.40;6.70;;;;;;;10.85;49.29;98098.91;8413053;28;20225;-71
2023/04/08 01:05:04;;;;;;;7.57;6.87;;;;;;;10.69;49.25;98103.88;8413182;28;20230;-71
2023/04/08 01:09:09;;;;;;;7.47;6.77;;;;;;;10.81;48.55;98086.97;8413343;28;20231;-71
2023/04/08 01:13:14;;;;;;;7.93;7.23;;;;;;;10.76;48.42;98101.88;8412951;28;20245;-71
2023/04/08 01:17:19;;;;;;;8.13;7.43;;;;;;;10.44;47.91;98041.09;8412901;28;20263;-72
2023/04/08 01:21:23;;;;;;;7.73;7.03;;;;;;;10.80;47.88;98108.63;8412785;28;20516;-71
2023/04/08 01:25:32;;;;;;;8.50;7.60;;;;;;;10.83;47.57;98100.69;8412540;28;20238;-71
2023/04/08 01:29:36;;;;;;;8.83;8.03;;;;;;;10.74;47.76;98101.13;8412333;28;20229;-71
2023/04/08 01:33:39;;;;;;;8.37;7.47;;;;;;;10.76;47.55;98110.50;8412511;28;20230;-71
2023/04/08 01:37:42;;;;;;;8.53;7.63;;;;;;;10.75;47.68;98101.03;8412122;28;20228;-71
2023/04/08 01:41:46;;;;;;;8.80;8.00;;;;;;;10.70;47.82;98113.34;8411882;28;20253;-71
2023/04/08 01:45:53;;;;;;;9.20;8.33;;;;;;;10.64;47.57;98081.69;8412232;28;20224;-71
2023/04/08 01:49:56;;;;;;;8.93;8.10;;;;;;;10.81;47.39;98101.69;8411894;28;20228;-71
2023/04/08 01:53:59;;;;;;;11.47;8.57;;;;;;;10.71;47.15;98101.22;8412004;28;20239;-71
2023/04/08 01:58:03;;;;;;;9.40;8.60;;;;;;;10.66;47.08;98101.44;8411970;28;20226;-71
2023/04/08 02:02:09;;;;;;;9.50;8.43;;;;;;;10.78;47.16;98094.06;8411700;28;20231;-70
2023/04/08 02:06:11;;;;;;;10.10;9.10;;;;;;;10.68;47.00;98099.63;8411235;28;20321;-71
2023/04/08 02:10:14;;;;;;;9.50;8.60;;;;;;;10.79;46.73;98106.91;8411863;28;20234;-70
2023/04/08 02:14:17;;;;;;;9.40;8.43;;;;;;;10.70;46.60;98102.13;8411679;28;20236;-71
2023/04/08 02:18:25;;;;;;;9.60;8.70;;;;;;;10.71;46.38;98101.22;8411943;28;20434;-71
2023/04/08 02:22:31;;;;;;;9.93;9.03;;;;;;;10.70;46.18;98109.91;8411585;28;20242;-71
2023/04/08 02:26:36;;;;;;;10.27;9.27;;;;;;;10.55;46.49;98109.66;8411839;28;20223;-71
2023/04/08 02:30:43;;;;;;;10.33;8.87;;;;;;;10.71;46.18;98112.44;8411392;28;20228;-71
2023/04/08 02:34:47;;;;;;;9.67;8.77;;;;;;;10.74;45.65;98109.72;8411214;28;20229;-71
2023/04/08 02:38:50;;;;;;;10.10;9.10;;;;;;;10.52;45.67;98096.81;8411173;28;20236;-70
2023/04/08 02:42:55;;;;;;;12.93;9.33;;;;;;;10.53;45.53;98110.63;8410815;28;20306;-71
2023/04/08 02:46:58;;;;;;;9.77;8.77;;;;;;;10.72;45.15;98108.94;8411464;28;20229;-70
2023/04/08 02:51:02;;;;;;;10.77;9.67;;;;;;;10.68;44.59;98122.94;8411463;28;20401;-70
2023/04/08 02:55:08;;;;;;;10.27;8.87;;;;;;;10.74;44.01;98122.66;8410918;28;20271;-70
2023/04/08 02:59:11;;;;;;;10.63;8.97;;;;;;;10.65;44.15;98127.41;8410742;28;20548;-70
2023/04/08 03:03:14;;;;;;;10.13;9.13;;;;;;;10.67;44.11;98123.00;8410904;28;20252;-70
2023/04/08 03:07:18;;;;;;;10.67;9.57;;;;;;;10.64;43.93;98121.38;8410898;28;20256;-70
2023/04/08 03:11:21;;;;;;;10.03;9.00;;;;;;;10.60;44.25;98117.22;8410754;28;20561;-70
2023/04/08 03:15:24;;;;;;;10.83;9.70;;;;;;;10.61;43.94;98129.28;8410649;28;20240;-71
2023/04/08 03:19:26;;;;;;;10.77;8.87;;;;;;;10.68;44.03;98132.44;8414515;28;20231;-70
2023/04/08 03:23:31;;;;;;;10.03;9.03;;;;;;;10.61;44.16;98141.38;8416503;28;20561;-70
2023/04/08 03:27:33;;;;;;;10.70;9.40;;;;;;;10.47;44.32;98126.41;8416541;28;20224;-71
2023/04/08 03:31:36;;;;;;;10.53;9.33;;;;;;;10.45;44.54;98135.97;8416040;28;20540;-70
2023/04/08 03:35:39;;;;;;;10.10;9.10;;;;;;;10.46;44.74;98135.09;8416289;28;20364;-71
2023/04/08 03:39:44;;;;;;;10.50;9.40;;;;;;;10.39;45.14;98144.00;8415117;28;20232;-70
2023/04/08 03:43:46;;;;;;;10.07;9.07;;;;;;;10.42;45.33;98141.31;8415595;28;20233;-70
2023/04/08 03:47:49;;;;;;;10.73;9.63;;;;;;;10.34;45.13;98126.91;8415086;28;20320;-71
2023/04/08 03:51:52;;;;;;;10.37;9.27;;;;;;;10.40;45.16;98146.53;8414472;28;20371;-70
2023/04/08 03:55:56;;;;;;;9.70;8.73;;;;;;;10.42;45.01;98141.31;8414483;28;20228;-70
2023/04/08 03:59:59;;;;;;;9.97;8.67;;;;;;;10.30;44.98;98142.59;8413791;28;20239;-71
2023/04/08 04:04:02;;;;;;;9.73;8.73;;;;;;;10.35;44.80;98146.72;8413324;28;20230;-71
2023/04/08 04:08:06;;;;;;;9.40;8.50;;;;;;;10.26;45.10;98152.25;8413578;28;20226;-71
2023/04/08 04:12:12;;;;;;;9.57;8.67;;;;;;;10.32;45.16;98146.00;8412853;28;20235;-71
2023/04/08 04:16:17;;;;;;;11.07;9.30;;;;;;;10.25;45.00;98150.56;8413311;28;20599;-71
2023/04/08 04:20:20;;;;;;;9.60;8.70;;;;;;;10.22;44.65;98150.66;8413089;28;20242;-71
2023/04/08 04:24:23;;;;;;;9.50;8.47;;;;;;;10.24;44.21;98143.66;8412906;28;20235;-71
2023/04/08 04:28:27;;;;;;;9.50;8.60;;;;;;;10.24;44.15;98153.19;8412697;28;20228;-71
2023/04/08 04:32:30;;;;;;;9.47;8.40;;;;;;;10.32;44.18;98159.78;8413197;28;20415;-71
2023/04/08 04:36:37;;;;;;;9.80;8.80;;;;;;;10.34;44.20;98160.56;8413195;28;20582;-71
2023/04/08 04:40:40;;;;;;;9.40;8.37;;;;;;;10.20;44.03;98152.47;8412778;28;20431;-71
2023/04/08 04:44:45;;;;;;;11.03;9.90;;;;;;;10.21;44.13;98166.28;8411356;28;20519;-70
2023/04/08 04:48:47;;;;;;;13.40;8.87;;;;;;;10.24;43.75;98164.38;8411983;28;20405;-71
2023/04/08 04:52:50;;;;;;;10.30;9.00;;;;;;;10.35;43.57;98169.16;8411881;28;20363;-71
2023/04/08 04:56:53;;;;;;;10.97;9.40;;;;;;;10.40;43.29;98171.59;8411630;28;20239;-71
2023/04/08 05:00:57;;;;;;;9.70;8.80;;;;;;;10.40;43.42;98169.84;8411733;28;20232;-71
2023/04/08 05:05:00;;;;;;;12.83;9.00;;;;;;;10.25;43.76;98173.84;8411952;28;20230;-71
2023/04/08 05:09:03;;;;;;;9.57;8.57;;;;;;;10.35;43.61;98188.13;8411741;28;20232;-71
2023/04/08 05:13:06;;;;;;;10.47;8.30;;;;;;;10.45;43.59;98183.44;8411313;28;20229;-71
2023/04/08 05:17:11;;;;;;;10.07;8.27;;;;;;;10.43;43.61;98192.16;8411230;28;20239;-69
2023/04/08 05:21:14;;;;;;;8.57;7.77;;;;;;;10.50;43.29;98184.09;8411373;28;20231;-70
2023/04/08 05:25:17;;;;;;;9.03;7.67;;;;;;;10.59;43.15;98190.66;8411134;28;20236;-70
2023/04/08 05:29:20;;;;;;;8.90;8.00;;;;;;;10.55;43.20;98189.09;8411032;28;20295;-71
2023/04/08 05:33:25;;;;;;;8.73;7.80;;;;;;;10.47;42.92;98189.41;8410987;28;20258;-70
2023/04/08 05:37:28;;;;;;;8.63;7.47;;;;;;;10.68;42.71;98200.63;8411335;28;20399;-70
2023/04/08 05:41:30;;;;;;;8.37;7.57;;;;;;;10.62;42.39;98202.63;8410588;28;20232;-71
2023/04/08 05:45:33;;;;;;;9.67;7.30;;;;;;;10.69;41.50;98212.66;8410712;28;20253;-71
2023/04/08 05:49:37;;;;;;;8.87;7.50;;;;;;;10.64;41.45;98211.16;8411161;28;20232;-71
2023/04/08 05:53:40;;;;;;;8.27;7.47;;;;;;;10.75;41.57;98225.38;8411088;28;20392;-70
2023/04/08 05:57:43;;;;;;;8.67;7.77;;;;;;;10.51;41.25;98224.63;8410511;28;20227;-70
2023/04/08 06:01:48;;;;;;;8.97;8.07;;;;;;;10.40;42.72;98228.56;8411162;28;20251;-70
2023/04/08 06:05:53;;;;;;;11.27;7.67;;;;;;;10.70;42.60;98229.91;8410486;28;20244;-71
2023/04/08 06:09:56;;;;;;;9.40;8.40;;;;;;;10.69;42.93;98240.31;8410369;28;20234;-70
2023/04/08 06:13:59;;;;;;;9.43;8.43;;;;;;;10.69;43.27;98235.97;8410225;28;20232;-71
2023/04/08 06:18:02;;;;;;;11.60;7.93;;;;;;;10.91;42.48;98243.72;8410767;28;20234;-71
2023/04/08 06:22:08;;;;;;;9.43;8.13;;;;;;;10.90;42.86;98242.03;8410554;28;20221;-70
2023/04/08 06:26:10;;;;;;;9.33;7.80;;;;;;;10.88;42.97;98232.66;8410056;28;20551;-70
2023/04/08 06:30:13;;;;;;;10.90;8.47;;;;;;;10.89;43.19;98242.94;8410107;28;20518;-71
2023/04/08 06:34:16;;;;;;;9.10;8.20;;;;;;;10.92;43.85;98253.16;8409920;28;20238;-71
2023/04/08 06:38:20;;;;;;;9.10;7.90;;;;;;;10.91;44.12;98248.91;8409802;28;20269;-70
2023/04/08 06:42:23;;;;;;;9.00;7.83;;;;;;;10.75;44.98;98242.66;8409451;28;20260;-71
2023/04/08 06:46:26;;;;;;;11.13;9.27;;;;;;;11.02;45.10;98261.41;8409764;28;20240;-72
2023/04/08 06:50:28;;;;;;;11.27;8.93;;;;;;;10.90;46.10;98264.50;8409833;28;20303;-70
2023/04/08 06:54:32;;;;;;;10.17;8.27;;;;;;;10.68;47.49;98280.06;8415281;28;20248;-71
2023/04/08 06:58:35;;;;;;;10.27;8.03;;;;;;;10.67;47.93;98274.06;8415792;28;20233;-71
2023/04/08 07:02:38;;;;;;;9.10;7.67;;;;;;;10.62;48.76;98282.91;8415798;28;20237;-71
2023/04/08 07:06:41;;;;;;;7.97;7.23;;;;;;;10.69;49.58;98280.00;8415538;28;20243;-72
2023/04/08 07:10:45;;;;;;;7.57;6.87;;;;;;;10.74;50.15;98279.84;8415254;28;20229;-71
2023/04/08 07:14:50;;;;;;;7.93;7.17;;;;;;;10.59;50.73;98291.66;8415296;28;20239;-70
2023/04/08 07:18:53;;;;;;;7.03;6.43;;;;;;;10.76;50.79;98294.41;8415375;28;20229;-70
2023/04/08 07:22:56;;;;;;;7.33;6.63;;;;;;;10.55;51.41;98296.09;8414663;28;20601;-70
2023/04/08 07:27:01;;;;;;;8.20;7.37;;;;;;;10.62;51.38;98285.50;8414172;28;20236;-70
2023/04/08 07:31:13;;;;;;;10.27;7.67;;;;;;;10.78;52.43;98309.06;8414280;28;20416;-70
2023/04/08 07:35:22;;;;;;;9.33;6.70;;;;;;;10.82;52.42;98311.47;8414612;28;20304;-72
2023/04/08 07:39:25;;;;;;;8.27;7.40;;;;;;;11.50;55.19;98311.28;8414207;28;20328;-72
2023/04/08 07:43:35;;;;;;;7.90;6.77;;;;;;;11.13;51.88;98308.47;8413719;28;20509;-72
2023/04/08 07:47:38;;;;;;;8.70;6.90;;;;;;;11.01;53.25;98311.56;8413891;28;20242;-72
2023/04/08 07:51:41;;;;;;;7.77;6.97;;;;;;;11.00;52.52;98314.22;8413512;28;20325;-70
2023/04/08 07:55:44;;;;;;;8.03;7.13;;;;;;;10.85;53.09;98313.94;8413019;28;20232;-72
2023/04/08 07:59:50;;;;;;;7.13;6.43;;;;;;;10.79;53.47;98321.09;8413274;28;20428;-72
2023/04/08 08:03:52;;;;;;;8.40;6.40;;;;;;;10.56;53.36;98315.06;8412534;28;20243;-72
2023/04/08 08:07:57;;;;;;;6.90;6.30;;;;;;;10.82;52.68;98328.75;8413411;28;20241;-71
2023/04/08 08:12:00;;;;;;;7.00;6.40;;;;;;;10.84;52.85;98335.56;8412997;28;20290;-72
2023/04/08 08:16:07;;;;;;;8.13;7.33;;;;;;;10.87;53.42;98337.19;8413105;28;20226;-72
2023/04/08 08:20:11;;;;;;;7.43;6.70;;;;;;;10.63;53.85;98334.66;8413297;28;20285;-72
2023/04/08 08:24:15;;;;;;;7.67;6.97;;;;;;;10.59;53.84;98340.03;8413116;28;20225;-72
2023/04/08 08:28:18;;;;;;;6.73;6.13;;;;;;;10.77;53.59;98339.28;8413277;28;20241;-72
2023/04/08 08:32:22;;;;;;;6.97;6.17;;;;;;;10.70;53.21;98348.19;8412427;28;20229;-72
2023/04/08 08:36:26;;;;;;;7.47;6.77;;;;;;;10.82;53.63;98342.56;8412591;28;20427;-72
2023/04/08 08:40:28;;;;;;;7.23;6.43;;;;;;;10.87;53.15;98352.72;8412349;28;20244;-72
2023/04/08 08:44:31;;;;;;;6.57;5.63;;;;;;;10.94;53.26;98354.16;8412608;28;20430;-72
2023/04/08 08:48:37;;;;;;;5.90;5.40;;;;;;;10.79;53.15;98349.59;8412760;28;20516;-72
2023/04/08 08:52:48;;;;;;;6.90;6.20;;;;;;;10.79;53.48;98358.19;8412791;28;20235;-72
2023/04/08 08:56:52;;;;;;;6.63;6.00;;;;;;;10.98;53.13;98360.91;8411468;28;20227;-72
2023/04/08 09:00:57;;;;;;;6.50;5.90;;;;;;;11.10;53.04;98365.63;8412531;28;20289;-72
2023/04/08 09:05:02;;;;;;;6.00;5.50;;;;;;;11.10;52.80;98368.22;8411969;28;20404;-71
2023/04/08 09:09:09;;;;;;;6.93;5.80;;;;;;;10.85;53.29;98362.31;8412364;28;20226;-72
2023/04/08 09:13:12;;;;;;;6.83;5.30;;;;;;;11.00;52.88;98369.47;8411909;28;20230;-72
2023/04/08 09:17:15;;;;;;;7.00;5.53;;;;;;;11.20;52.60;98378.22;8412171;28;20226;-72
2023/04/08 09:21:22;;;;;;;5.77;5.17;;;;;;;11.08;52.58;98377.81;8411724;28;20236;-72
2023/04/08 09:25:27;;;;;;;6.00;5.47;;;;;;;11.05;53.42;98382.25;8411644;28;20234;-72
2023/04/08 09:29:30;;;;;;;5.53;5.03;;;;;;;11.10;53.63;98380.31;8411422;28;20295;-73
2023/04/08 09:33:38;;;;;;;6.80;6.10;;;;;;;11.05;54.04;98384.84;8411669;28;20330;-71
2023/04/08 09:37:45;;;;;;;5.93;5.43;;;;;;;11.20;53.47;98381.66;8410935;28;20244;-71
2023/04/08 09:41:49;;;;;;;5.43;5.03;;;;;;;10.97;54.23;98382.56;8410707;28;20254;-72
2023/04/08 09:45:52;;;;;;;5.50;5.00;;;;;;;11.38;53.04;98382.63;8410844;28;20240;-73
2023/04/08 09:49:59;;;;;;;5.17;4.67;;;;;;;11.35;53.13;98382.78;8410816;28;20290;-72
2023/04/08 09:54:06;;;;;;;5.07;4.67;;;;;;;11.22;53.44;98377.25;8410797;28;20237;-72
2023/04/08 09:58:16;;;;;;;5.17;4.70;;;;;;;11.41;52.81;98392.91;8410209;28;20228;-72
2023/04/08 10:02:25;;;;;;;5.00;4.60;;;;;;;11.35;53.07;98395.75;8410691;28;20228;-72
2023/04/08 10:06:30;;;;;;;5.13;4.67;;;;;;;11.26;53.30;98390.94;8410211;28;20240;-72
2023/04/08 10:10:34;;;;;;;4.37;4.00;;;;;;;11.22;53.15;98382.44;8410888;28;20444;-72
2023/04/08 10:14:37;;;;;;;4.70;4.30;;;;;;;11.89;52.30;98398.69;8410845;28;20250;-71
2023/04/08 10:18:41;;;;;;;4.87;4.47;;;;;;;11.75;52.85;98399.28;8411029;28;20230;-72
2023/04/08 10:22:50;;;;;;;4.67;4.27;;;;;;;11.66;53.28;98397.06;8410244;28;20224;-73
2023/04/08 10:26:55;;;;;;;4.20;3.87;;;;;;;11.92;52.13;98398.59;8411824;28;20316;-73
2023/04/08 10:30:58;;;;;;;4.73;4.30;;;;;;;11.84;52.37;98398.03;8417902;28;20696;-73
2023/04/08 10:35:01;;;;;;;4.27;3.97;;;;;;;11.95;52.36;98390.66;8417139;28;20523;-74
2023/04/08 10:39:04;;;;;;;4.37;3.93;;;;;;;11.97;52.19;98380.22;8416975;28;20227;-73
2023/04/08 10:43:08;;;;;;;4.10;3.80;;;;;;;11.95;52.33;98395.84;8416601;28;20247;-73
2023/04/08 10:47:11;;;;;;;4.67;4.23;;;;;;;11.87;52.04;98382.34;8416586;28;20233;-73
2023/04/08 10:51:14;;;;;;;4.27;3.97;;;;;;;12.47;51.74;98385.78;8417102;28;20227;-73
2023/04/08 10:55:20;;;;;;;4.23;3.83;;;;;;;13.14;50.52;98382.72;8415950;28;20286;-72
2023/04/08 10:59:33;;;;;;;4.17;3.77;;;;;;;13.54;49.09;98381.63;8416269;28;20229;-72
2023/04/08 11:03:36;;;;;;;4.03;3.73;;;;;;;13.75;48.95;98382.31;8416115;28;20224;-73
2023/04/08 11:07:41;;;;;;;4.00;3.67;;;;;;;13.48;49.90;98380.16;8415558;28;20419;-72
2023/04/08 11:11:45;;;;;;;4.17;3.87;;;;;;;13.25;49.85;98380.41;8415052;28;20228;-72
2023/04/08 11:15:50;;;;;;;4.60;4.20;;;;;;;12.92;49.24;98381.09;8415795;28;20331;-73
2023/04/08 11:19:53;;;;;;;4.10;3.80;;;;;;;12.82;51.16;98375.50;8415784;28;20298;-74
2023/04/08 11:23:56;;;;;;;6.33;5.83;;;;;;;12.80;50.23;98317.56;8415269;28;20248;-72
2023/04/08 11:28:00;;;;;;;5.07;4.63;;;;;;;13.03;50.47;98378.84;8415125;28;20384;-72
2023/04/08 11:32:04;;;;;;;7.57;6.93;;;;;;;12.78;50.52;98381.78;8415462;28;20227;-73
2023/04/08 11:36:07;;;;;;;9.33;8.53;;;;;;;12.85;50.30;98380.56;8414674;28;20231;-72
2023/04/08 11:40:11;;;;;;;12.97;11.63;;;;;;;13.07;50.14;98375.19;8413982;28;20415;-74
2023/04/08 11:44:14;;;;;;;5.10;4.70;;;;;;;13.01;50.00;98383.28;8415197;28;20286;-71
2023/04/08 11:48:18;;;;;;;4.40;4.00;;;;;;;12.79;50.21;98347.06;8415218;28;20560;-72
2023/04/08 11:52:21;;;;;;;3.80;3.50;;;;;;;12.83;49.88;98377.22;8415186;28;20235;-72
2023/04/08 11:56:25;;;;;;;3.47;3.27;;;;;;;12.99;49.81;98374.72;8413896;28;20236;-72
2023/04/08 12:00:27;;;;;;;3.57;3.27;;;;;;;13.06;49.09;98372.66;8414150;28;20409;-72
2023/04/08 12:04:32;;;;;;;3.67;3.37;;;;;;;12.64;49.47;98372.03;8414006;28;20277;-72
2023/04/08 12:08:35;;;;;;;3.57;3.07;;;;;;;12.78;49.80;98378.34;8413320;28;20240;-72
2023/04/08 12:12:39;;;;;;;4.17;3.87;;;;;;;13.17;49.52;98385.13;8413120;28;20286;-72
2023/04/08 12:16:41;;;;;;;3.50;3.20;;;;;;;13.24;49.20;98378.72;8412688;28;20233;-72
2023/04/08 12:20:46;;;;;;;3.60;3.30;;;;;;;13.37;48.93;98374.66;8413175;28;20334;-73
2023/04/08 12:24:49;;;;;;;3.13;2.93;;;;;;;13.27;48.65;98379.44;8412694;28;20231;-73
2023/04/08 12:28:52;;;;;;;35.47;26.93;;;;;;;15.75;65.33;98376.66;8412867;28;20244;-73
2023/04/08 12:32:56;;;;;;;19.87;16.20;;;;;;;16.34;58.81;98378.41;8412531;28;20236;-72
2023/04/08 12:37:01;;;;;;;4.63;3.97;;;;;;;16.20;48.58;98363.53;8412690;28;20254;-72
2023/04/08 12:41:04;;;;;;;4.83;4.43;;;;;;;14.89;46.57;98384.16;8412433;28;20224;-72
2023/04/08 12:45:08;;;;;;;3.93;3.63;;;;;;;14.28;47.80;98385.66;8412844;28;20230;-73
2023/04/08 12:49:11;;;;;;;4.40;4.00;;;;;;;14.02;48.24;98389.63;8412165;28;20231;-72
2023/04/08 12:53:15;;;;;;;6.17;5.67;;;;;;;13.76;49.29;98394.38;8411632;28;20235;-74
2023/04/08 12:57:18;;;;;;;4.37;4.07;;;;;;;13.66;49.30;98385.38;8412363;28;20245;-74
2023/04/08 13:01:21;;;;;;;7.53;6.93;;;;;;;13.37;49.56;98394.63;8412544;28;20229;-74
2023/04/08 13:05:24;;;;;;;4.07;3.77;;;;;;;13.35;48.60;98386.88;8412613;28;20295;-74
2023/04/08 13:09:45;;;;;;;3.30;3.10;;;;;;;13.10;49.06;98390.66;8411618;28;20242;-75
2023/04/08 13:13:49;;;;;;;3.97;3.67;;;;;;;13.21;48.44;98392.75;8412360;28;20237;-74
2023/04/08 13:17:52;;;;;;;4.03;3.73;;;;;;;13.17;48.61;98398.16;8412487;28;20435;-74
2023/04/08 13:21:54;;;;;;;4.57;4.17;;;;;;;13.57;48.16;98404.03;8411575;28;20241;-75
2023/04/08 13:25:59;;;;;;;4.57;4.13;;;;;;;13.29;48.18;98395.81;8411222;28;20238;-75
2023/04/08 13:30:02;;;;;;;5.10;4.60;;;;;;;13.14;47.49;98400.91;8410887;28;20260;-75
2023/04/08 13:34:05;;;;;;;5.73;5.23;;;;;;;12.12;49.91;98398.56;8410802;28;20362;-75
2023/04/08 13:38:07;;;;;;;6.20;5.23;;;;;;;13.37;47.78;98399.81;8410654;28;20540;-75
2023/04/08 13:42:12;;;;;;;5.20;4.80;;;;;;;13.78;46.94;98396.91;8410686;28;20236;-75
2023/04/08 13:46:15;;;;;;;4.20;3.90;;;;;;;14.16;45.16;98386.28;8410425;28;20229;-74
2023/04/08 13:50:17;;;;;;;4.03;3.73;;;;;;;15.03;42.50;98381.59;8410746;28;20252;-74
2023/04/08 13:54:20;;;;;;;5.50;5.00;;;;;;;13.96;42.27;98382.97;8410483;28;20237;-75
2023/04/08 13:58:25;;;;;;;7.00;6.30;;;;;;;14.63;42.11;98386.41;8410674;28;20233;-75
2023/04/08 14:02:27;;;;;;;4.40;4.00;;;;;;;13.98;40.62;98388.94;8409632;28;20235;-73
2023/04/08 14:06:31;;;;;;;3.00;2.80;;;;;;;14.19;40.49;98383.53;8410376;28;20237;-73
2023/04/08 14:10:34;;;;;;;3.00;2.80;;;;;;;14.69;40.33;98384.41;8412052;28;20423;-75
2023/04/08 14:14:38;;;;;;;3.50;3.30;;;;;;;14.64;39.92;98375.06;8412339;28;20370;-75
2023/04/08 14:18:41;;;;;;;3.50;3.30;;;;;;;14.75;38.59;98364.03;8412390;28;20203;-75
2023/04/08 14:22:44;;;;;;;3.73;3.43;;;;;;;15.58;39.23;98382.00;8412981;28;20322;-74
2023/04/08 14:26:47;;;;;;;3.40;3.20;;;;;;;15.27;39.06;98370.72;8412396;28;20253;-75
2023/04/08 14:30:51;;;;;;;3.53;3.33;;;;;;;15.09;39.47;98379.59;8412617;28;20185;-75
2023/04/08 14:34:54;;;;;;;3.43;3.13;;;;;;;14.95;39.43;98372.53;8412272;28;20203;-74
2023/04/08 14:38:57;;;;;;;3.17;2.97;;;;;;;14.94;39.56;98370.84;8412168;28;20211;-75
2023/04/08 14:43:00;;;;;;;3.17;2.97;;;;;;;14.59;39.30;98378.84;8412632;28;20294;-75
2023/04/08 14:47:04;;;;;;;2.70;2.50;;;;;;;14.92;40.07;98355.28;8411469;28;20218;-75
2023/04/08 14:51:07;;;;;;;2.70;2.50;;;;;;;15.69;37.76;98370.91;8412242;28;20182;-75
2023/04/08 14:55:10;;;;;;;2.07;1.97;;;;;;;15.30;37.76;98367.09;8412073;28;20219;-75
2023/04/08 14:59:12;;;;;;;2.60;2.40;;;;;;;14.76;38.17;98370.94;8412002;28;20225;-74
2023/04/08 15:03:17;;;;;;;5.70;5.30;;;;;;;14.63;38.81;98369.94;8411919;28;20241;-74
2023/04/08 15:07:21;;;;;;;3.10;2.90;;;;;;;14.14;40.41;98375.94;8411615;28;20320;-74
2023/04/08 15:11:24;;;;;;;3.53;3.23;;;;;;;14.09;41.20;98377.97;8410778;28;20183;-75
2023/04/08 15:15:27;;;;;;;3.60;3.30;;;;;;;14.04;42.06;98386.00;8416334;28;20207;-75
2023/04/08 15:19:31;;;;;;;3.80;3.50;;;;;;;13.77;42.31;98393.47;8416935;28;20378;-74
2023/04/08 15:23:34;;;;;;;6.47;5.47;;;;;;;13.14;42.07;98300.34;8416732;28;20216;-74
2023/04/08 15:27:37;;;;;;;3.33;3.13;;;;;;;13.82;42.49;98395.84;8416146;28;20331;-74
2023/04/08 15:31:41;;;;;;;3.70;3.40;;;;;;;13.70;42.35;98394.69;8416400;28;20205;-75
2023/04/08 15:35:47;;;;;;;3.10;2.90;;;;;;;13.45;41.75;98369.06;8415803;28;20190;-74
2023/04/08 15:39:50;;;;;;;4.40;4.10;;;;;;;13.22;42.39;98399.59;8416216;28;20300;-74
2023/04/08 15:43:53;;;;;;;2.90;2.70;;;;;;;13.93;40.92;98406.53;8416711;28;20182;-74
2023/04/08 15:47:55;;;;;;;3.03;2.73;;;;;;;13.87;41.58;98405.09;8415999;28;20296;-75
2023/04/08 15:52:00;;;;;;;3.30;3.00;;;;;;;13.79;42.17;98409.84;8416140;28;20476;-75
2023/04/08 15:56:03;;;;;;;3.80;3.40;;;;;;;13.73;46.11;98375.47;8415403;28;20240;-75
2023/04/08 16:00:10;;;;;;;3.70;3.40;;;;;;;13.91;42.69;98415.38;8415779;28;20196;-73
2023/04/08 16:04:13;;;;;;;3.47;3.27;;;;;;;13.79;42.58;98424.66;8415840;28;20197;-73
2023/04/08 16:08:18;;;;;;;3.80;3.50;;;;;;;13.91;42.91;98433.59;8415665;28;20496;-74
2023/04/08 16:12:20;;;;;;;3.47;3.17;;;;;;;13.86;41.93;98428.63;8416094;28;20197;-74
2023/04/08 16:16:23;;;;;;;2.60;2.40;;;;;;;13.66;41.26;98429.59;8416105;28;20245;-74
2023/04/08 16:20:27;;;;;;;2.90;2.70;;;;;;;13.74;41.54;98447.44;8415192;28;20209;-74
2023/04/08 16:24:35;;;;;;;2.57;2.37;;;;;;;13.69;41.50;98448.53;8415176;28;20181;-73
2023/04/08 16:28:38;;;;;;;3.67;3.07;;;;;;;13.68;41.61;98451.19;8415640;28;20535;-73
2023/04/08 16:32:41;;;;;;;2.90;2.70;;;;;;;13.51;41.72;98453.78;8415903;28;20181;-74
2023/04/08 16:36:44;;;;;;;3.13;2.93;;;;;;;13.17;42.02;98405.94;8415102;28;20204;-74
2023/04/08 16:40:49;;;;;;;2.77;2.57;;;;;;;13.58;41.82;98458.63;8412315;28;20236;-73
2023/04/08 16:44:56;;;;;;;4.10;3.80;;;;;;;13.44;43.39;98455.81;8412074;28;20220;-74
2023/04/08 16:49:00;;;;;;;4.50;4.10;;;;;;;13.40;43.73;98462.97;8412850;28;20235;-73
2023/04/08 16:53:02;;;;;;;5.57;5.00;;;;;;;13.09;45.17;98466.13;8412500;28;20461;-73
2023/04/08 16:57:07;;;;;;;11.03;8.97;;;;;;;13.30;44.75;98467.72;8412696;28;20527;-73
2023/04/08 17:01:10;;;;;;;7.23;6.53;;;;;;;13.11;44.86;98456.47;8411314;28;20531;-74
2023/04/08 17:05:13;;;;;;;6.00;5.50;;;;;;;13.12;45.63;98476.38;8412437;28;20427;-73
2023/04/08 17:09:16;;;;;;;5.67;5.17;;;;;;;13.24;45.61;98480.16;8411458;28;20232;-73
2023/04/08 17:13:20;;;;;;;5.97;5.47;;;;;;;13.18;46.98;98486.50;8411326;28;20233;-74
2023/04/08 17:17:23;;;;;;;6.33;5.60;;;;;;;13.29;46.47;98494.63;8411462;28;20322;-74
2023/04/08 17:21:26;;;;;;;8.47;7.67;;;;;;;13.01;47.05;98500.28;8411398;28;20252;-74
2023/04/08 17:25:30;;;;;;;8.73;7.50;;;;;;;12.95;47.23;98503.16;8411320;28;20387;-74
2023/04/08 17:29:34;;;;;;;10.77;8.73;;;;;;;13.15;47.00;98502.22;8411134;28;20331;-75
2023/04/08 17:33:37;;;;;;;11.83;10.30;;;;;;;13.14;46.82;98512.72;8411069;28;20252;-73
2023/04/08 17:37:40;;;;;;;12.73;11.43;;;;;;;13.03;47.26;98510.59;8410027;28;20287;-73
2023/04/08 17:41:43;;;;;;;10.77;9.67;;;;;;;12.14;47.34;98375.13;8410782;28;20224;-73
2023/04/08 17:45:50;;;;;;;9.43;8.53;;;;;;;13.02;47.13;98514.09;8412129;28;20228;-74
2023/04/08 17:49:55;;;;;;;12.73;11.43;;;;;;;12.88;47.53;98512.13;8411455;28;20524;-71
2023/04/08 17:53:58;;;;;;;11.47;10.37;;;;;;;12.93;47.26;98507.59;8410997;28;20358;-73
2023/04/08 17:58:01;;;;;;;12.17;10.87;;;;;;;12.66;47.66;98510.50;8410406;28;20243;-74
2023/04/08 18:02:05;;;;;;;12.23;11.13;;;;;;;12.75;47.72;98524.00;8410534;28;20528;-74
2023/04/08 18:06:08;;;;;;;10.23;9.23;;;;;;;12.78;47.57;98540.31;8409588;28;20380;-73
2023/04/08 18:10:11;;;;;;;9.87;8.97;;;;;;;12.84;47.88;98537.44;8409892;28;20255;-73
2023/04/08 18:14:15;;;;;;;11.43;10.33;;;;;;;12.85;47.68;98544.31;8409985;28;20228;-73
2023/04/08 18:18:20;;;;;;;9.67;8.77;;;;;;;12.84;47.83;98546.97;8409933;28;20306;-73
2023/04/08 18:22:32;;;;;;;10.70;9.60;;;;;;;12.93;47.86;98554.38;8410026;28;20424;-73
2023/04/08 18:26:35;;;;;;;11.17;9.97;;;;;;;13.43;51.86;98568.63;8409824;28;20228;-75
2023/04/08 18:30:38;;;;;;;11.00;8.33;;;;;;;13.56;56.65;98564.53;8409701;28;20232;-73
2023/04/08 18:34:42;;;;;;;9.43;6.20;;;;;;;15.37;63.83;98575.41;8410219;28;20298;-74
2023/04/08 18:38:45;;;;;;;10.47;7.97;;;;;;;15.71;53.18;98576.19;8410156;28;20244;-73
2023/04/08 18:42:48;;;;;;;11.10;10.00;;;;;;;14.22;46.35;98582.19;8409780;28;20242;-71
2023/04/08 18:46:51;;;;;;;11.67;10.57;;;;;;;13.84;46.81;98579.69;8409694;28;20490;-71
2023/04/08 18:50:55;;;;;;;13.30;12.00;;;;;;;13.28;48.87;98586.56;8416048;28;20227;-71
2023/04/08 18:54:59;;;;;;;15.93;14.27;;;;;;;13.22;49.78;98599.03;8416501;28;20229;-72
2023/04/08 18:59:02;;;;;;;14.77;13.27;;;;;;;13.21;50.28;98599.94;8416392;28;20233;-71
2023/04/08 19:03:05;;;;;;;13.50;12.10;;;;;;;12.82;51.37;98567.84;8416152;28;20236;-71